sensor_id;sensor_type;location;lat;lon;timestamp;P1;durP1;ratioP1;P2;durP2;ratioP2
6693;SDS011;3384;42.628;23.380;2022-09-09T00:00:24;10.20;;;9.40;;
6693;SDS011;3384;42.628;23.380;2022-09-09T00:02:54;10.03;;;8.83;;
6693;SDS011;3384;42.628;23.380;2022-09-09T00:05:29;10.03;;;9.33;;
6693;SDS011;3384;42.628;23.380;2022-09-09T00:08:02;9.77;;;9.07;;
6693;SDS011;3384;42.628;23.380;2022-09-09T00:10:31;13.63;;;10.60;;
6693;SDS011;3384;42.628;23.380;2022-09-09T00:13:02;10.40;;;9.60;;
6693;SDS011;3384;42.628;23.380;2022-09-09T00:15:45;10.93;;;9.90;;
6693;SDS011;3384;42.628;23.380;2022-09-09T00:18:23;10.10;;;9.20;;
6693;SDS011;3384;42.628;23.380;2022-09-09T00:20:55;11.73;;;8.87;;
6693;SDS011;3384;42.628;23.380;2022-09-09T00:23:30;13.17;;;8.80;;
6693;SDS011;3384;42.628;23.380;2022-09-09T00:26:05;10.27;;;9.47;;
6693;SDS011;3384;42.628;23.380;2022-09-09T00:28:41;8.70;;;7.90;;
6693;SDS011;3384;42.628;23.380;2022-09-09T00:31:18;8.60;;;8.00;;
6693;SDS011;3384;42.628;23.380;2022-09-09T00:33:49;9.63;;;8.90;;
6693;SDS011;3384;42.628;23.380;2022-09-09T00:36:17;8.20;;;7.70;;
6693;SDS011;3384;42.628;23.380;2022-09-09T00:38:48;8.07;;;7.77;;
6693;SDS011;3384;42.628;23.380;2022-09-09T00:41:18;11.77;;;7.90;;
6693;SDS011;3384;42.628;23.380;2022-09-09T00:43:55;17.17;;;7.07;;
6693;SDS011;3384;42.628;23.380;2022-09-09T00:46:34;9.13;;;8.20;;
6693;SDS011;3384;42.628;23.380;2022-09-09T00:49:24;8.23;;;7.73;;
6693;SDS011;3384;42.628;23.380;2022-09-09T00:51:59;12.00;;;7.80;;
6693;SDS011;3384;42.628;23.380;2022-09-09T00:54:39;10.13;;;9.27;;
6693;SDS011;3384;42.628;23.380;2022-09-09T00:57:14;8.90;;;8.20;;
6693;SDS011;3384;42.628;23.380;2022-09-09T01:00:15;9.80;;;9.20;;
6693;SDS011;3384;42.628;23.380;2022-09-09T01:02:47;7.93;;;7.43;;
6693;SDS011;3384;42.628;23.380;2022-09-09T01:05:30;8.87;;;8.00;;
6693;SDS011;3384;42.628;23.380;2022-09-09T01:08:03;9.37;;;8.53;;
6693;SDS011;3384;42.628;23.380;2022-09-09T01:10:39;8.40;;;7.70;;
6693;SDS011;3384;42.628;23.380;2022-09-09T01:13:15;9.47;;;8.67;;
6693;SDS011;3384;42.628;23.380;2022-09-09T01:15:48;8.87;;;8.37;;
6693;SDS011;3384;42.628;23.380;2022-09-09T01:18:17;7.70;;;7.33;;
6693;SDS011;3384;42.628;23.380;2022-09-09T01:20:49;9.43;;;8.37;;
6693;SDS011;3384;42.628;23.380;2022-09-09T01:23:33;9.17;;;8.50;;
6693;SDS011;3384;42.628;23.380;2022-09-09T01:26:26;9.73;;;8.00;;
6693;SDS011;3384;42.628;23.380;2022-09-09T01:28:56;8.43;;;7.90;;
6693;SDS011;3384;42.628;23.380;2022-09-09T01:31:23;8.17;;;7.77;;
6693;SDS011;3384;42.628;23.380;2022-09-09T01:33:54;9.00;;;8.37;;
6693;SDS011;3384;42.628;23.380;2022-09-09T01:36:24;8.70;;;8.00;;
6693;SDS011;3384;42.628;23.380;2022-09-09T01:38:56;10.00;;;9.10;;
6693;SDS011;3384;42.628;23.380;2022-09-09T01:41:23;9.23;;;8.43;;
6693;SDS011;3384;42.628;23.380;2022-09-09T01:43:52;9.77;;;8.80;;
6693;SDS011;3384;42.628;23.380;2022-09-09T01:46:19;9.17;;;8.67;;
6693;SDS011;3384;42.628;23.380;2022-09-09T01:48:48;9.73;;;8.93;;
6693;SDS011;3384;42.628;23.380;2022-09-09T01:51:16;9.77;;;8.63;;
6693;SDS011;3384;42.628;23.380;2022-09-09T01:53:43;8.57;;;7.87;;
6693;SDS011;3384;42.628;23.380;2022-09-09T01:56:14;9.27;;;8.40;;
6693;SDS011;3384;42.628;23.380;2022-09-09T01:58:54;9.17;;;8.47;;
6693;SDS011;3384;42.628;23.380;2022-09-09T02:01:32;8.50;;;8.00;;
6693;SDS011;3384;42.628;23.380;2022-09-09T02:04:11;8.97;;;8.43;;
6693;SDS011;3384;42.628;23.380;2022-09-09T02:06:49;9.10;;;8.33;;
6693;SDS011;3384;42.628;23.380;2022-09-09T02:09:21;10.03;;;9.00;;
6693;SDS011;3384;42.628;23.380;2022-09-09T02:11:50;8.10;;;7.50;;
6693;SDS011;3384;42.628;23.380;2022-09-09T02:14:27;8.33;;;7.63;;
6693;SDS011;3384;42.628;23.380;2022-09-09T02:16:57;9.40;;;8.43;;
6693;SDS011;3384;42.628;23.380;2022-09-09T02:19:32;9.13;;;8.40;;
6693;SDS011;3384;42.628;23.380;2022-09-09T02:22:01;8.97;;;8.10;;
6693;SDS011;3384;42.628;23.380;2022-09-09T02:24:30;12.23;;;9.23;;
6693;SDS011;3384;42.628;23.380;2022-09-09T02:27:01;8.40;;;7.87;;
6693;SDS011;3384;42.628;23.380;2022-09-09T02:29:36;9.97;;;9.03;;
6693;SDS011;3384;42.628;23.380;2022-09-09T02:32:06;9.33;;;8.10;;
6693;SDS011;3384;42.628;23.380;2022-09-09T02:34:39;9.60;;;8.67;;
6693;SDS011;3384;42.628;23.380;2022-09-09T02:37:08;8.10;;;7.80;;
6693;SDS011;3384;42.628;23.380;2022-09-09T02:39:37;8.67;;;7.97;;
6693;SDS011;3384;42.628;23.380;2022-09-09T02:42:04;9.90;;;9.10;;
6693;SDS011;3384;42.628;23.380;2022-09-09T02:44:34;9.73;;;8.93;;
6693;SDS011;3384;42.628;23.380;2022-09-09T02:47:07;9.90;;;9.30;;
6693;SDS011;3384;42.628;23.380;2022-09-09T02:49:43;9.90;;;9.07;;
6693;SDS011;3384;42.628;23.380;2022-09-09T02:52:23;9.90;;;9.10;;
6693;SDS011;3384;42.628;23.380;2022-09-09T02:54:57;10.33;;;9.40;;
6693;SDS011;3384;42.628;23.380;2022-09-09T02:57:30;10.67;;;9.40;;
6693;SDS011;3384;42.628;23.380;2022-09-09T03:00:00;16.10;;;10.27;;
6693;SDS011;3384;42.628;23.380;2022-09-09T03:02:28;11.20;;;10.23;;
6693;SDS011;3384;42.628;23.380;2022-09-09T03:04:55;10.33;;;9.73;;
6693;SDS011;3384;42.628;23.380;2022-09-09T03:07:23;12.70;;;11.23;;
6693;SDS011;3384;42.628;23.380;2022-09-09T03:09:49;12.43;;;11.20;;
6693;SDS011;3384;42.628;23.380;2022-09-09T03:12:17;15.17;;;12.50;;
6693;SDS011;3384;42.628;23.380;2022-09-09T03:14:43;13.70;;;12.30;;
6693;SDS011;3384;42.628;23.380;2022-09-09T03:17:13;17.77;;;11.80;;
6693;SDS011;3384;42.628;23.380;2022-09-09T03:19:40;12.87;;;11.67;;
6693;SDS011;3384;42.628;23.380;2022-09-09T03:22:08;15.47;;;13.40;;
6693;SDS011;3384;42.628;23.380;2022-09-09T03:24:35;19.20;;;12.57;;
6693;SDS011;3384;42.628;23.380;2022-09-09T03:27:02;14.97;;;13.47;;
6693;SDS011;3384;42.628;23.380;2022-09-09T03:29:29;15.90;;;12.63;;
6693;SDS011;3384;42.628;23.380;2022-09-09T03:31:56;15.37;;;12.70;;
6693;SDS011;3384;42.628;23.380;2022-09-09T03:34:24;15.93;;;11.93;;
6693;SDS011;3384;42.628;23.380;2022-09-09T03:36:51;13.53;;;12.30;;
6693;SDS011;3384;42.628;23.380;2022-09-09T03:39:18;13.40;;;11.57;;
6693;SDS011;3384;42.628;23.380;2022-09-09T03:41:44;12.83;;;11.73;;
6693;SDS011;3384;42.628;23.380;2022-09-09T03:44:13;13.53;;;12.40;;
6693;SDS011;3384;42.628;23.380;2022-09-09T03:46:40;13.30;;;12.17;;
6693;SDS011;3384;42.628;23.380;2022-09-09T03:49:07;15.53;;;11.63;;
6693;SDS011;3384;42.628;23.380;2022-09-09T03:51:36;13.27;;;12.10;;
6693;SDS011;3384;42.628;23.380;2022-09-09T03:54:03;13.17;;;11.03;;
6693;SDS011;3384;42.628;23.380;2022-09-09T03:56:33;12.80;;;11.60;;
6693;SDS011;3384;42.628;23.380;2022-09-09T03:59:00;11.53;;;10.37;;
6693;SDS011;3384;42.628;23.380;2022-09-09T04:01:27;13.50;;;12.40;;
6693;SDS011;3384;42.628;23.380;2022-09-09T04:03:54;13.27;;;11.80;;
6693;SDS011;3384;42.628;23.380;2022-09-09T04:06:23;12.80;;;11.50;;
6693;SDS011;3384;42.628;23.380;2022-09-09T04:08:51;11.87;;;10.70;;
6693;SDS011;3384;42.628;23.380;2022-09-09T04:11:18;18.50;;;12.57;;
6693;SDS011;3384;42.628;23.380;2022-09-09T04:13:45;13.53;;;12.13;;
6693;SDS011;3384;42.628;23.380;2022-09-09T04:16:12;12.70;;;11.57;;
6693;SDS011;3384;42.628;23.380;2022-09-09T04:18:39;19.33;;;11.00;;
6693;SDS011;3384;42.628;23.380;2022-09-09T04:21:07;13.30;;;12.20;;
6693;SDS011;3384;42.628;23.380;2022-09-09T04:23:35;16.60;;;11.30;;
6693;SDS011;3384;42.628;23.380;2022-09-09T04:26:03;16.33;;;10.63;;
6693;SDS011;3384;42.628;23.380;2022-09-09T04:28:31;15.67;;;11.23;;
6693;SDS011;3384;42.628;23.380;2022-09-09T04:31:04;12.27;;;11.00;;
6693;SDS011;3384;42.628;23.380;2022-09-09T04:33:33;11.27;;;10.17;;
6693;SDS011;3384;42.628;23.380;2022-09-09T04:36:11;10.40;;;9.67;;
6693;SDS011;3384;42.628;23.380;2022-09-09T04:38:38;12.53;;;8.80;;
6693;SDS011;3384;42.628;23.380;2022-09-09T04:41:07;14.60;;;10.00;;
6693;SDS011;3384;42.628;23.380;2022-09-09T04:43:36;10.33;;;9.33;;
6693;SDS011;3384;42.628;23.380;2022-09-09T04:46:03;10.13;;;8.10;;
6693;SDS011;3384;42.628;23.380;2022-09-09T04:48:31;10.53;;;8.43;;
6693;SDS011;3384;42.628;23.380;2022-09-09T04:50:59;14.27;;;8.40;;
6693;SDS011;3384;42.628;23.380;2022-09-09T04:53:27;9.30;;;8.47;;
6693;SDS011;3384;42.628;23.380;2022-09-09T04:56:00;12.10;;;8.17;;
6693;SDS011;3384;42.628;23.380;2022-09-09T04:58:29;10.07;;;9.30;;
6693;SDS011;3384;42.628;23.380;2022-09-09T05:01:02;9.37;;;8.60;;
6693;SDS011;3384;42.628;23.380;2022-09-09T05:03:33;11.33;;;8.90;;
6693;SDS011;3384;42.628;23.380;2022-09-09T05:06:03;11.50;;;10.30;;
6693;SDS011;3384;42.628;23.380;2022-09-09T05:08:31;10.10;;;9.30;;
6693;SDS011;3384;42.628;23.380;2022-09-09T05:10:58;11.97;;;8.40;;
6693;SDS011;3384;42.628;23.380;2022-09-09T05:13:25;8.07;;;6.83;;
6693;SDS011;3384;42.628;23.380;2022-09-09T05:15:54;9.60;;;8.03;;
6693;SDS011;3384;42.628;23.380;2022-09-09T05:18:21;7.47;;;7.07;;
6693;SDS011;3384;42.628;23.380;2022-09-09T05:20:48;16.50;;;9.10;;
6693;SDS011;3384;42.628;23.380;2022-09-09T05:23:16;8.80;;;8.13;;
6693;SDS011;3384;42.628;23.380;2022-09-09T05:25:43;8.70;;;8.20;;
6693;SDS011;3384;42.628;23.380;2022-09-09T05:28:11;14.63;;;7.33;;
6693;SDS011;3384;42.628;23.380;2022-09-09T05:30:38;9.83;;;8.93;;
6693;SDS011;3384;42.628;23.380;2022-09-09T05:33:06;8.03;;;7.40;;
6693;SDS011;3384;42.628;23.380;2022-09-09T05:35:34;12.50;;;8.23;;
6693;SDS011;3384;42.628;23.380;2022-09-09T05:38:01;10.33;;;8.00;;
6693;SDS011;3384;42.628;23.380;2022-09-09T05:40:27;9.27;;;8.57;;
6693;SDS011;3384;42.628;23.380;2022-09-09T05:42:55;9.70;;;7.63;;
6693;SDS011;3384;42.628;23.380;2022-09-09T05:45:25;7.33;;;6.63;;
6693;SDS011;3384;42.628;23.380;2022-09-09T05:47:52;7.73;;;7.10;;
6693;SDS011;3384;42.628;23.380;2022-09-09T05:50:21;7.27;;;6.57;;
6693;SDS011;3384;42.628;23.380;2022-09-09T05:52:48;6.00;;;5.60;;
6693;SDS011;3384;42.628;23.380;2022-09-09T05:55:15;10.23;;;6.00;;
6693;SDS011;3384;42.628;23.380;2022-09-09T05:57:47;6.53;;;6.10;;
6693;SDS011;3384;42.628;23.380;2022-09-09T06:00:17;6.60;;;5.97;;
6693;SDS011;3384;42.628;23.380;2022-09-09T06:02:49;7.03;;;6.73;;
6693;SDS011;3384;42.628;23.380;2022-09-09T06:05:17;6.10;;;5.90;;
6693;SDS011;3384;42.628;23.380;2022-09-09T06:07:45;5.57;;;5.13;;
6693;SDS011;3384;42.628;23.380;2022-09-09T06:10:12;9.27;;;5.63;;
6693;SDS011;3384;42.628;23.380;2022-09-09T06:12:39;6.37;;;5.73;;
6693;SDS011;3384;42.628;23.380;2022-09-09T06:15:06;8.47;;;6.03;;
6693;SDS011;3384;42.628;23.380;2022-09-09T06:17:34;8.43;;;5.97;;
6693;SDS011;3384;42.628;23.380;2022-09-09T06:20:01;6.53;;;5.90;;
6693;SDS011;3384;42.628;23.380;2022-09-09T06:22:29;7.40;;;6.73;;
6693;SDS011;3384;42.628;23.380;2022-09-09T06:24:57;6.30;;;5.80;;
6693;SDS011;3384;42.628;23.380;2022-09-09T06:27:26;6.93;;;6.43;;
6693;SDS011;3384;42.628;23.380;2022-09-09T06:29:55;11.93;;;6.43;;
6693;SDS011;3384;42.628;23.380;2022-09-09T06:32:22;6.43;;;5.70;;
6693;SDS011;3384;42.628;23.380;2022-09-09T06:34:49;7.10;;;6.23;;
6693;SDS011;3384;42.628;23.380;2022-09-09T06:37:15;6.70;;;6.10;;
6693;SDS011;3384;42.628;23.380;2022-09-09T06:39:42;6.37;;;6.07;;
6693;SDS011;3384;42.628;23.380;2022-09-09T06:42:10;7.80;;;6.00;;
6693;SDS011;3384;42.628;23.380;2022-09-09T06:44:37;7.20;;;6.50;;
6693;SDS011;3384;42.628;23.380;2022-09-09T06:47:04;13.87;;;5.80;;
6693;SDS011;3384;42.628;23.380;2022-09-09T06:49:31;7.30;;;6.67;;
6693;SDS011;3384;42.628;23.380;2022-09-09T06:51:57;6.57;;;6.37;;
6693;SDS011;3384;42.628;23.380;2022-09-09T06:54:26;8.23;;;7.20;;
6693;SDS011;3384;42.628;23.380;2022-09-09T07:13:36;10.80;;;6.80;;
6693;SDS011;3384;42.628;23.380;2022-09-09T07:16:03;8.70;;;6.10;;
6693;SDS011;3384;42.628;23.380;2022-09-09T07:18:31;9.43;;;6.40;;
6693;SDS011;3384;42.628;23.380;2022-09-09T07:21:01;11.53;;;7.60;;
6693;SDS011;3384;42.628;23.380;2022-09-09T07:23:29;8.60;;;6.77;;
6693;SDS011;3384;42.628;23.380;2022-09-09T07:25:57;7.73;;;7.20;;
6693;SDS011;3384;42.628;23.380;2022-09-09T07:28:24;10.43;;;7.70;;
6693;SDS011;3384;42.628;23.380;2022-09-09T07:30:53;7.60;;;7.10;;
6693;SDS011;3384;42.628;23.380;2022-09-09T07:33:20;18.03;;;6.70;;
6693;SDS011;3384;42.628;23.380;2022-09-09T07:35:47;12.50;;;6.37;;
6693;SDS011;3384;42.628;23.380;2022-09-09T07:38:15;21.23;;;7.03;;
6693;SDS011;3384;42.628;23.380;2022-09-09T07:40:42;22.23;;;6.73;;
6693;SDS011;3384;42.628;23.380;2022-09-09T07:43:09;9.57;;;7.23;;
6693;SDS011;3384;42.628;23.380;2022-09-09T07:45:36;7.87;;;7.07;;
6693;SDS011;3384;42.628;23.380;2022-09-09T07:48:05;11.50;;;6.73;;
6693;SDS011;3384;42.628;23.380;2022-09-09T07:50:32;6.63;;;6.00;;
6693;SDS011;3384;42.628;23.380;2022-09-09T07:52:59;7.77;;;7.10;;
6693;SDS011;3384;42.628;23.380;2022-09-09T07:55:28;6.80;;;6.27;;
6693;SDS011;3384;42.628;23.380;2022-09-09T07:57:55;9.47;;;6.43;;
6693;SDS011;3384;42.628;23.380;2022-09-09T08:00:22;12.30;;;6.60;;
6693;SDS011;3384;42.628;23.380;2022-09-09T08:02:53;9.63;;;7.03;;
6693;SDS011;3384;42.628;23.380;2022-09-09T08:05:22;6.33;;;5.80;;
6693;SDS011;3384;42.628;23.380;2022-09-09T08:07:49;8.33;;;6.47;;
6693;SDS011;3384;42.628;23.380;2022-09-09T08:10:16;12.83;;;7.70;;
6693;SDS011;3384;42.628;23.380;2022-09-09T08:12:45;14.80;;;6.80;;
6693;SDS011;3384;42.628;23.380;2022-09-09T08:15:12;11.20;;;6.83;;
6693;SDS011;3384;42.628;23.380;2022-09-09T08:17:39;6.00;;;5.70;;
6693;SDS011;3384;42.628;23.380;2022-09-09T08:20:05;6.67;;;6.00;;
6693;SDS011;3384;42.628;23.380;2022-09-09T08:22:32;7.50;;;6.53;;
6693;SDS011;3384;42.628;23.380;2022-09-09T08:25:00;7.27;;;6.83;;
6693;SDS011;3384;42.628;23.380;2022-09-09T08:27:27;5.87;;;5.50;;
6693;SDS011;3384;42.628;23.380;2022-09-09T08:29:58;9.23;;;5.93;;
6693;SDS011;3384;42.628;23.380;2022-09-09T08:32:25;6.07;;;5.57;;
6693;SDS011;3384;42.628;23.380;2022-09-09T08:34:52;9.70;;;6.10;;
6693;SDS011;3384;42.628;23.380;2022-09-09T08:37:19;7.40;;;6.70;;
6693;SDS011;3384;42.628;23.380;2022-09-09T08:39:46;6.97;;;6.27;;
6693;SDS011;3384;42.628;23.380;2022-09-09T08:42:23;7.73;;;6.93;;
6693;SDS011;3384;42.628;23.380;2022-09-09T08:45:05;5.80;;;5.40;;
6693;SDS011;3384;42.628;23.380;2022-09-09T08:47:43;5.50;;;5.20;;
6693;SDS011;3384;42.628;23.380;2022-09-09T08:50:23;9.80;;;6.23;;
6693;SDS011;3384;42.628;23.380;2022-09-09T08:52:54;14.33;;;6.50;;
6693;SDS011;3384;42.628;23.380;2022-09-09T08:55:28;14.10;;;5.57;;
6693;SDS011;3384;42.628;23.380;2022-09-09T08:58:06;7.97;;;7.03;;
6693;SDS011;3384;42.628;23.380;2022-09-09T09:00:40;10.43;;;6.13;;
6693;SDS011;3384;42.628;23.380;2022-09-09T09:03:15;24.67;;;7.03;;
6693;SDS011;3384;42.628;23.380;2022-09-09T09:05:58;6.37;;;5.80;;
6693;SDS011;3384;42.628;23.380;2022-09-09T09:08:33;14.87;;;5.73;;
6693;SDS011;3384;42.628;23.380;2022-09-09T09:11:06;11.13;;;5.70;;
6693;SDS011;3384;42.628;23.380;2022-09-09T09:13:34;6.83;;;6.03;;
6693;SDS011;3384;42.628;23.380;2022-09-09T09:16:13;6.63;;;5.67;;
6693;SDS011;3384;42.628;23.380;2022-09-09T09:18:47;5.53;;;5.00;;
6693;SDS011;3384;42.628;23.380;2022-09-09T09:21:15;18.17;;;7.27;;
6693;SDS011;3384;42.628;23.380;2022-09-09T09:23:48;6.10;;;5.83;;
6693;SDS011;3384;42.628;23.380;2022-09-09T09:26:20;10.20;;;5.93;;
6693;SDS011;3384;42.628;23.380;2022-09-09T09:28:49;7.80;;;6.33;;
6693;SDS011;3384;42.628;23.380;2022-09-09T09:31:20;6.43;;;5.93;;
6693;SDS011;3384;42.628;23.380;2022-09-09T09:33:49;14.30;;;6.80;;
6693;SDS011;3384;42.628;23.380;2022-09-09T09:36:18;17.47;;;6.70;;
6693;SDS011;3384;42.628;23.380;2022-09-09T09:38:52;5.97;;;4.70;;
6693;SDS011;3384;42.628;23.380;2022-09-09T09:44:21;6.63;;;6.10;;
6693;SDS011;3384;42.628;23.380;2022-09-09T09:46:51;6.53;;;6.10;;
6693;SDS011;3384;42.628;23.380;2022-09-09T09:49:18;6.57;;;5.97;;
6693;SDS011;3384;42.628;23.380;2022-09-09T09:51:45;6.13;;;5.73;;
6693;SDS011;3384;42.628;23.380;2022-09-09T09:54:17;10.47;;;6.17;;
6693;SDS011;3384;42.628;23.380;2022-09-09T09:56:54;11.10;;;6.97;;
6693;SDS011;3384;42.628;23.380;2022-09-09T09:59:32;6.20;;;5.70;;
6693;SDS011;3384;42.628;23.380;2022-09-09T10:02:13;5.80;;;5.40;;
6693;SDS011;3384;42.628;23.380;2022-09-09T10:04:42;8.40;;;6.00;;
6693;SDS011;3384;42.628;23.380;2022-09-09T10:07:10;11.23;;;5.83;;
6693;SDS011;3384;42.628;23.380;2022-09-09T10:09:38;11.73;;;6.63;;
6693;SDS011;3384;42.628;23.380;2022-09-09T10:12:07;17.57;;;6.87;;
6693;SDS011;3384;42.628;23.380;2022-09-09T10:14:47;9.30;;;5.80;;
6693;SDS011;3384;42.628;23.380;2022-09-09T10:17:27;7.13;;;6.50;;
6693;SDS011;3384;42.628;23.380;2022-09-09T10:20:14;9.70;;;6.47;;
6693;SDS011;3384;42.628;23.380;2022-09-09T10:22:52;9.00;;;6.63;;
6693;SDS011;3384;42.628;23.380;2022-09-09T10:25:30;10.73;;;5.83;;
6693;SDS011;3384;42.628;23.380;2022-09-09T10:31:02;9.37;;;5.60;;
6693;SDS011;3384;42.628;23.380;2022-09-09T10:33:42;24.77;;;6.90;;
6693;SDS011;3384;42.628;23.380;2022-09-09T10:36:17;12.50;;;5.73;;
6693;SDS011;3384;42.628;23.380;2022-09-09T10:38:47;10.50;;;6.47;;
6693;SDS011;3384;42.628;23.380;2022-09-09T10:41:20;5.90;;;5.70;;
6693;SDS011;3384;42.628;23.380;2022-09-09T10:46:58;14.63;;;6.87;;
6693;SDS011;3384;42.628;23.380;2022-09-09T10:49:47;7.90;;;6.20;;
6693;SDS011;3384;42.628;23.380;2022-09-09T10:52:24;5.77;;;5.10;;
6693;SDS011;3384;42.628;23.380;2022-09-09T10:54:56;6.87;;;6.10;;
6693;SDS011;3384;42.628;23.380;2022-09-09T10:57:28;14.73;;;7.10;;
6693;SDS011;3384;42.628;23.380;2022-09-09T11:00:02;9.87;;;5.80;;
6693;SDS011;3384;42.628;23.380;2022-09-09T11:02:32;10.60;;;6.10;;
6693;SDS011;3384;42.628;23.380;2022-09-09T11:05:03;7.70;;;6.10;;
6693;SDS011;3384;42.628;23.380;2022-09-09T11:07:37;12.13;;;6.20;;
6693;SDS011;3384;42.628;23.380;2022-09-09T11:10:16;10.10;;;6.23;;
6693;SDS011;3384;42.628;23.380;2022-09-09T11:12:48;8.47;;;5.80;;
6693;SDS011;3384;42.628;23.380;2022-09-09T11:15:20;14.43;;;7.00;;
6693;SDS011;3384;42.628;23.380;2022-09-09T11:17:55;12.97;;;6.33;;
6693;SDS011;3384;42.628;23.380;2022-09-09T11:20:26;7.57;;;6.63;;
6693;SDS011;3384;42.628;23.380;2022-09-09T11:22:57;11.57;;;6.03;;
6693;SDS011;3384;42.628;23.380;2022-09-09T11:25:29;8.00;;;6.43;;
6693;SDS011;3384;42.628;23.380;2022-09-09T11:31:01;6.63;;;6.03;;
6693;SDS011;3384;42.628;23.380;2022-09-09T11:33:48;13.40;;;6.43;;
6693;SDS011;3384;42.628;23.380;2022-09-09T11:36:42;6.63;;;6.07;;
6693;SDS011;3384;42.628;23.380;2022-09-09T11:39:30;10.70;;;5.73;;
6693;SDS011;3384;42.628;23.380;2022-09-09T11:42:33;13.50;;;6.97;;
6693;SDS011;3384;42.628;23.380;2022-09-09T11:45:08;8.63;;;7.80;;
6693;SDS011;3384;42.628;23.380;2022-09-09T11:47:38;6.90;;;6.30;;
6693;SDS011;3384;42.628;23.380;2022-09-09T11:50:08;6.80;;;6.40;;
6693;SDS011;3384;42.628;23.380;2022-09-09T11:53:04;7.77;;;6.20;;
6693;SDS011;3384;42.628;23.380;2022-09-09T11:55:42;8.00;;;7.30;;
6693;SDS011;3384;42.628;23.380;2022-09-09T11:58:15;16.77;;;7.20;;
6693;SDS011;3384;42.628;23.380;2022-09-09T12:00:44;18.00;;;7.60;;
6693;SDS011;3384;42.628;23.380;2022-09-09T12:06:11;23.83;;;7.70;;
6693;SDS011;3384;42.628;23.380;2022-09-09T12:08:46;6.77;;;6.43;;
6693;SDS011;3384;42.628;23.380;2022-09-09T12:11:27;7.13;;;6.40;;
6693;SDS011;3384;42.628;23.380;2022-09-09T12:13:56;8.53;;;6.63;;
6693;SDS011;3384;42.628;23.380;2022-09-09T12:16:28;9.10;;;5.70;;
6693;SDS011;3384;42.628;23.380;2022-09-09T12:19:12;7.40;;;6.23;;
6693;SDS011;3384;42.628;23.380;2022-09-09T12:21:44;10.00;;;5.63;;
6693;SDS011;3384;42.628;23.380;2022-09-09T12:24:19;8.60;;;7.13;;
6693;SDS011;3384;42.628;23.380;2022-09-09T12:26:55;11.87;;;7.80;;
6693;SDS011;3384;42.628;23.380;2022-09-09T12:29:29;7.90;;;5.83;;
6693;SDS011;3384;42.628;23.380;2022-09-09T12:32:07;7.07;;;6.60;;
6693;SDS011;3384;42.628;23.380;2022-09-09T12:34:38;12.43;;;7.00;;
6693;SDS011;3384;42.628;23.380;2022-09-09T12:37:12;13.93;;;6.47;;
6693;SDS011;3384;42.628;23.380;2022-09-09T12:39:45;22.13;;;7.30;;
6693;SDS011;3384;42.628;23.380;2022-09-09T12:42:17;10.97;;;6.27;;
6693;SDS011;3384;42.628;23.380;2022-09-09T12:44:55;15.13;;;6.97;;
6693;SDS011;3384;42.628;23.380;2022-09-09T12:47:25;12.40;;;6.97;;
6693;SDS011;3384;42.628;23.380;2022-09-09T12:50:01;8.50;;;7.73;;
6693;SDS011;3384;42.628;23.380;2022-09-09T12:52:29;8.40;;;7.60;;
6693;SDS011;3384;42.628;23.380;2022-09-09T12:55:01;6.87;;;6.30;;
6693;SDS011;3384;42.628;23.380;2022-09-09T12:57:31;7.13;;;6.53;;
6693;SDS011;3384;42.628;23.380;2022-09-09T13:00:05;8.37;;;7.50;;
6693;SDS011;3384;42.628;23.380;2022-09-09T13:02:44;7.33;;;6.53;;
6693;SDS011;3384;42.628;23.380;2022-09-09T13:05:13;9.23;;;7.80;;
6693;SDS011;3384;42.628;23.380;2022-09-09T13:07:42;12.30;;;6.77;;
6693;SDS011;3384;42.628;23.380;2022-09-09T13:10:12;13.17;;;7.23;;
6693;SDS011;3384;42.628;23.380;2022-09-09T13:12:40;8.00;;;7.40;;
6693;SDS011;3384;42.628;23.380;2022-09-09T13:15:14;10.33;;;6.97;;
6693;SDS011;3384;42.628;23.380;2022-09-09T13:17:49;13.03;;;7.93;;
6693;SDS011;3384;42.628;23.380;2022-09-09T13:20:19;12.70;;;7.83;;
6693;SDS011;3384;42.628;23.380;2022-09-09T13:22:47;13.33;;;6.90;;
6693;SDS011;3384;42.628;23.380;2022-09-09T13:25:20;13.60;;;7.27;;
6693;SDS011;3384;42.628;23.380;2022-09-09T13:27:54;15.93;;;8.07;;
6693;SDS011;3384;42.628;23.380;2022-09-09T13:30:27;16.80;;;7.90;;
6693;SDS011;3384;42.628;23.380;2022-09-09T13:32:59;22.93;;;7.30;;
6693;SDS011;3384;42.628;23.380;2022-09-09T13:35:27;15.10;;;7.90;;
6693;SDS011;3384;42.628;23.380;2022-09-09T13:37:54;13.10;;;7.10;;
6693;SDS011;3384;42.628;23.380;2022-09-09T13:40:23;19.77;;;7.93;;
6693;SDS011;3384;42.628;23.380;2022-09-09T13:42:51;14.97;;;8.20;;
6693;SDS011;3384;42.628;23.380;2022-09-09T13:45:24;15.00;;;7.20;;
6693;SDS011;3384;42.628;23.380;2022-09-09T13:47:52;7.77;;;7.03;;
6693;SDS011;3384;42.628;23.380;2022-09-09T13:50:20;28.40;;;8.37;;
6693;SDS011;3384;42.628;23.380;2022-09-09T13:52:49;30.30;;;10.80;;
6693;SDS011;3384;42.628;23.380;2022-09-09T13:55:18;15.00;;;9.33;;
6693;SDS011;3384;42.628;23.380;2022-09-09T13:57:52;14.30;;;8.10;;
6693;SDS011;3384;42.628;23.380;2022-09-09T14:00:20;11.63;;;6.47;;
6693;SDS011;3384;42.628;23.380;2022-09-09T14:02:47;23.57;;;7.90;;
6693;SDS011;3384;42.628;23.380;2022-09-09T14:05:14;15.67;;;7.40;;
6693;SDS011;3384;42.628;23.380;2022-09-09T14:07:42;14.43;;;6.80;;
6693;SDS011;3384;42.628;23.380;2022-09-09T14:10:09;13.80;;;7.00;;
6693;SDS011;3384;42.628;23.380;2022-09-09T14:12:37;15.77;;;7.40;;
6693;SDS011;3384;42.628;23.380;2022-09-09T14:15:06;8.93;;;7.60;;
6693;SDS011;3384;42.628;23.380;2022-09-09T14:17:35;22.33;;;8.00;;
6693;SDS011;3384;42.628;23.380;2022-09-09T14:20:02;12.13;;;8.10;;
6693;SDS011;3384;42.628;23.380;2022-09-09T14:22:33;8.23;;;7.33;;
6693;SDS011;3384;42.628;23.380;2022-09-09T14:25:00;10.60;;;6.53;;
6693;SDS011;3384;42.628;23.380;2022-09-09T14:27:27;26.70;;;8.10;;
6693;SDS011;3384;42.628;23.380;2022-09-09T14:29:55;15.23;;;8.00;;
6693;SDS011;3384;42.628;23.380;2022-09-09T14:32:24;22.63;;;7.40;;
6693;SDS011;3384;42.628;23.380;2022-09-09T14:34:50;18.50;;;7.10;;
6693;SDS011;3384;42.628;23.380;2022-09-09T14:37:17;7.93;;;6.97;;
6693;SDS011;3384;42.628;23.380;2022-09-09T14:39:45;8.60;;;7.03;;
6693;SDS011;3384;42.628;23.380;2022-09-09T14:42:12;13.97;;;7.50;;
6693;SDS011;3384;42.628;23.380;2022-09-09T14:44:39;9.53;;;7.00;;
6693;SDS011;3384;42.628;23.380;2022-09-09T14:47:06;9.07;;;7.70;;
6693;SDS011;3384;42.628;23.380;2022-09-09T14:49:35;13.90;;;7.57;;
6693;SDS011;3384;42.628;23.380;2022-09-09T14:52:02;14.57;;;6.83;;
6693;SDS011;3384;42.628;23.380;2022-09-09T14:54:30;7.47;;;6.60;;
6693;SDS011;3384;42.628;23.380;2022-09-09T14:56:57;14.43;;;8.03;;
6693;SDS011;3384;42.628;23.380;2022-09-09T14:59:24;12.40;;;7.20;;
6693;SDS011;3384;42.628;23.380;2022-09-09T15:01:51;10.73;;;6.73;;
6693;SDS011;3384;42.628;23.380;2022-09-09T15:04:20;21.70;;;8.00;;
6693;SDS011;3384;42.628;23.380;2022-09-09T15:06:49;11.03;;;7.73;;
6693;SDS011;3384;42.628;23.380;2022-09-09T15:09:17;9.73;;;7.03;;
6693;SDS011;3384;42.628;23.380;2022-09-09T15:11:44;7.57;;;7.07;;
6693;SDS011;3384;42.628;23.380;2022-09-09T15:14:11;9.83;;;6.77;;
6693;SDS011;3384;42.628;23.380;2022-09-09T15:16:38;14.67;;;7.63;;
6693;SDS011;3384;42.628;23.380;2022-09-09T15:19:05;13.37;;;7.83;;
6693;SDS011;3384;42.628;23.380;2022-09-09T15:21:33;8.47;;;6.83;;
6693;SDS011;3384;42.628;23.380;2022-09-09T15:24:02;14.83;;;6.43;;
6693;SDS011;3384;42.628;23.380;2022-09-09T15:26:29;12.73;;;7.60;;
6693;SDS011;3384;42.628;23.380;2022-09-09T15:28:57;17.87;;;7.70;;
6693;SDS011;3384;42.628;23.380;2022-09-09T15:31:25;10.33;;;7.67;;
6693;SDS011;3384;42.628;23.380;2022-09-09T15:33:55;8.90;;;7.00;;
6693;SDS011;3384;42.628;23.380;2022-09-09T15:36:26;13.60;;;8.20;;
6693;SDS011;3384;42.628;23.380;2022-09-09T15:38:54;22.40;;;7.40;;
6693;SDS011;3384;42.628;23.380;2022-09-09T15:41:23;12.37;;;8.73;;
6693;SDS011;3384;42.628;23.380;2022-09-09T15:43:50;10.70;;;7.57;;
6693;SDS011;3384;42.628;23.380;2022-09-09T15:46:24;18.50;;;8.10;;